createdAt,value
2022-10-25T00:03:53.340Z,99741.56
2022-10-25T00:08:54.959Z,99748.72
2022-10-25T00:13:59.569Z,99743.38
2022-10-25T00:19:01.171Z,99750.84
2022-10-25T00:24:02.933Z,99762.69
2022-10-25T00:29:04.573Z,99766.56
2022-10-25T00:34:06.149Z,99762.13
2022-10-25T00:39:07.815Z,99761.34
2022-10-25T00:44:34.283Z,99760.50
2022-10-25T00:49:35.990Z,99761.59
2022-10-25T00:54:42.800Z,99762.84
2022-10-25T00:59:45.796Z,99774.09
2022-10-25T01:04:47.719Z,99772.69
2022-10-25T01:09:50.697Z,99762.88
2022-10-25T01:14:53.082Z,99750.69
2022-10-25T01:20:00.732Z,99749.53
2022-10-25T01:25:17.448Z,99743.00
2022-10-25T01:30:21.474Z,99742.28
2022-10-25T01:35:30.991Z,99750.91
2022-10-25T01:40:51.105Z,99749.75
2022-10-25T01:46:03.710Z,99758.53
2022-10-25T01:51:10.664Z,99752.66
2022-10-25T01:56:19.001Z,99753.94
2022-10-25T02:01:36.331Z,99751.53
2022-10-25T02:06:59.368Z,99753.06
2022-10-25T02:12:04.643Z,99749.63
2022-10-25T02:17:16.697Z,99748.53
2022-10-25T02:22:21.668Z,99746.19
2022-10-25T02:27:25.057Z,99746.88
2022-10-25T02:32:27.715Z,99752.16
2022-10-25T02:37:29.308Z,99751.69
2022-10-25T02:42:30.970Z,99755.06
2022-10-25T02:47:32.565Z,99756.25
2022-10-25T02:52:34.235Z,99745.69
2022-10-25T02:57:37.508Z,99747.03
2022-10-25T03:02:39.045Z,99758.47
2022-10-25T03:07:40.618Z,99772.53
2022-10-25T03:12:42.257Z,99767.34
2022-10-25T03:17:43.986Z,99773.72
2022-10-25T03:22:45.753Z,99773.75
2022-10-25T03:27:47.741Z,99781.47
2022-10-25T03:32:49.534Z,99793.50
2022-10-25T03:37:52.365Z,99782.06
2022-10-25T03:42:53.934Z,99788.44
2022-10-25T03:47:55.494Z,99789.47
2022-10-25T03:52:57.060Z,99796.63
2022-10-25T03:57:59.035Z,99804.00
2022-10-25T04:03:02.553Z,99808.56
2022-10-25T04:08:04.694Z,99805.50
2022-10-25T04:13:06.338Z,99807.47
2022-10-25T04:18:07.885Z,99820.38
2022-10-25T04:23:09.554Z,99815.09
2022-10-25T04:28:11.097Z,99824.72
2022-10-25T04:33:12.670Z,99828.44
2022-10-25T04:38:14.392Z,99831.53
2022-10-25T04:43:15.982Z,99836.63
2022-10-25T04:48:18.365Z,99828.38
2022-10-25T04:53:20.072Z,99826.69
2022-10-25T04:58:21.701Z,99817.66
2022-10-25T05:03:23.285Z,99825.56
2022-10-25T05:08:24.884Z,99833.09
2022-10-25T05:13:26.522Z,99827.44
2022-10-25T05:18:28.170Z,99826.41
2022-10-25T05:23:31.990Z,99838.38
2022-10-25T05:28:35.720Z,99840.75
2022-10-25T05:33:40.419Z,99844.56
2022-10-25T05:38:42.836Z,99849.41
2022-10-25T05:43:45.297Z,99855.56
2022-10-25T05:48:49.102Z,99861.81
2022-10-25T05:53:52.726Z,99870.03
2022-10-25T05:58:57.080Z,99876.84
2022-10-25T06:03:58.610Z,99879.50
2022-10-25T06:09:01.323Z,99887.66
2022-10-25T06:14:03.748Z,99885.91
2022-10-25T06:19:05.374Z,99885.41
2022-10-25T06:24:07.042Z,99905.75
2022-10-25T06:29:09.553Z,99911.06
2022-10-25T06:34:11.245Z,99911.50
2022-10-25T06:39:12.818Z,99910.28
2022-10-25T06:44:14.532Z,99912.97
2022-10-25T06:49:16.131Z,99905.03
2022-10-25T06:54:17.836Z,99910.03
2022-10-25T06:59:20.529Z,99910.91
2022-10-25T07:04:22.266Z,99919.56
2022-10-25T07:09:25.336Z,99919.59
2022-10-25T07:14:26.974Z,99920.63
2022-10-25T07:19:28.495Z,99924.81
2022-10-25T07:24:30.096Z,99922.94
2022-10-25T07:29:31.679Z,99924.03
2022-10-25T07:34:33.403Z,99940.84
2022-10-25T07:39:35.047Z,99934.94
2022-10-25T07:44:36.713Z,99933.28
2022-10-25T07:49:39.963Z,99941.97
2022-10-25T07:59:43.178Z,99932.59
2022-10-25T08:04:44.875Z,99932.34
2022-10-25T08:09:46.481Z,99952.34
2022-10-25T08:14:49.792Z,99948.75
2022-10-25T08:19:51.608Z,99957.50
2022-10-25T08:24:53.590Z,99948.84
2022-10-25T08:29:55.262Z,99953.56
2022-10-25T08:34:56.987Z,99952.59
2022-10-25T08:39:58.564Z,99956.47
2022-10-25T08:45:11.076Z,99964.91
2022-10-25T08:50:20.691Z,99973.44
2022-10-25T08:55:44.551Z,99978.97
2022-10-25T09:00:57.452Z,99977.94
2022-10-25T09:06:20.837Z,99992.06
2022-10-25T09:11:50.361Z,99983.84
2022-10-25T09:16:55.749Z,99974.44
2022-10-25T09:22:01.326Z,99990.94
2022-10-25T09:27:09.022Z,99984.50
2022-10-25T09:32:24.713Z,99994.88
2022-10-25T09:37:42.098Z,100006.59
2022-10-25T09:42:53.016Z,100007.44
2022-10-25T09:48:06.169Z,100013.13
2022-10-25T09:53:14.247Z,100011.31
2022-10-25T09:58:23.970Z,100020.81
2022-10-25T10:03:31.990Z,100022.59
2022-10-25T10:08:35.414Z,100018.75
2022-10-25T10:13:48.693Z,100029.00
2022-10-25T10:18:50.285Z,100032.59
2022-10-25T10:24:02.308Z,100026.38
2022-10-25T10:29:15.390Z,100022.69
2022-10-25T10:34:30.894Z,100029.28
2022-10-25T10:39:32.714Z,100026.72
2022-10-25T10:44:34.845Z,100028.50
2022-10-25T10:49:40.871Z,100027.16
2022-10-25T10:54:48.001Z,100033.63
2022-10-25T10:59:56.418Z,100019.84
2022-10-25T11:04:58.253Z,100035.72
2022-10-25T11:10:15.318Z,100033.81
2022-10-25T11:15:18.270Z,100029.28
2022-10-25T11:20:56.914Z,100030.00
2022-10-25T11:26:07.332Z,100036.44
2022-10-25T11:31:12.283Z,100032.47
2022-10-25T11:36:23.157Z,100029.91
2022-10-25T11:41:46.107Z,100035.75
2022-10-25T11:47:15.603Z,100049.75
2022-10-25T11:52:35.804Z,100039.13
2022-10-25T11:57:37.577Z,100038.63
2022-10-25T12:03:03.317Z,100036.66
2022-10-25T12:08:14.142Z,100038.19
2022-10-25T12:13:19.650Z,100041.66
2022-10-25T12:18:49.515Z,100041.94
2022-10-25T12:23:53.508Z,100040.44
2022-10-25T12:28:59.961Z,100043.03
2022-10-25T12:34:08.950Z,100048.91
2022-10-25T12:39:36.622Z,100063.50
2022-10-25T12:44:58.405Z,100044.50
2022-10-25T12:50:15.301Z,100051.91
2022-10-25T12:55:26.558Z,100048.16
2022-10-25T13:00:37.295Z,100055.34
2022-10-25T13:06:02.071Z,100051.72
2022-10-25T13:11:06.801Z,100047.91
2022-10-25T13:16:10.728Z,100042.66
2022-10-25T13:21:15.730Z,100042.25
2022-10-25T13:26:25.807Z,100039.78
2022-10-25T13:31:36.674Z,100048.56
2022-10-25T13:36:52.953Z,100050.81
2022-10-25T13:42:02.574Z,100055.22
2022-10-25T13:47:04.337Z,100057.44
2022-10-25T13:52:24.893Z,100066.56
2022-10-25T13:57:56.611Z,100064.19
2022-10-25T14:03:10.327Z,100056.63
2022-10-25T14:08:45.142Z,100061.19
2022-10-25T14:14:05.276Z,100061.72
2022-10-25T14:19:16.745Z,100072.34
2022-10-25T14:24:19.995Z,100075.97
2022-10-25T14:29:25.056Z,100076.81
2022-10-25T14:34:30.150Z,100079.38
2022-10-25T14:39:32.191Z,100083.28
2022-10-25T14:44:50.639Z,100080.31
2022-10-25T14:49:52.301Z,100081.81
2022-10-25T14:55:06.127Z,100075.56
2022-10-25T15:00:18.315Z,100075.63
2022-10-25T15:05:22.780Z,100072.66
2022-10-25T15:10:30.697Z,100077.25
2022-10-25T15:15:40.660Z,100076.97
2022-10-25T15:20:42.590Z,100081.38
2022-10-25T15:25:44.483Z,100083.34
2022-10-25T15:30:48.894Z,100087.31
2022-10-25T15:35:55.697Z,100073.78
2022-10-25T15:40:57.741Z,100073.13
2022-10-25T15:46:00.407Z,100076.19
2022-10-25T15:51:02.231Z,100077.03
2022-10-25T15:56:04.345Z,100075.47
2022-10-25T16:01:06.450Z,100080.72
2022-10-25T16:06:11.562Z,100079.50
2022-10-25T16:11:16.839Z,100083.72
2022-10-25T16:16:41.061Z,100081.63
2022-10-25T16:21:43.666Z,100078.53
2022-10-25T16:26:48.684Z,100088.63
2022-10-25T16:31:50.738Z,100095.72
2022-10-25T16:36:53.084Z,100095.41
2022-10-25T16:41:56.739Z,100104.66
2022-10-25T16:46:59.991Z,100103.66
2022-10-25T16:52:01.521Z,100103.31
2022-10-25T16:57:03.150Z,100121.53
2022-10-25T17:02:05.300Z,100127.69
2022-10-25T17:07:06.953Z,100129.44
2022-10-25T17:12:10.096Z,100134.47
2022-10-25T17:17:11.835Z,100139.88
2022-10-25T17:22:13.456Z,100147.38
2022-10-25T17:27:14.988Z,100151.69
2022-10-25T17:32:16.546Z,100151.28
2022-10-25T17:37:18.064Z,100155.91
2022-10-25T17:42:20.245Z,100159.56
2022-10-25T17:47:21.982Z,100161.53
2022-10-25T17:52:23.540Z,100162.56
2022-10-25T17:57:25.130Z,100160.97
2022-10-25T18:02:27.919Z,100159.53
2022-10-25T18:07:32.706Z,100162.13
2022-10-25T18:12:36.568Z,100160.59
2022-10-25T18:17:38.099Z,100162.47
2022-10-25T18:22:39.616Z,100175.38
2022-10-25T18:27:41.472Z,100179.38
2022-10-25T18:32:43.041Z,100175.16
2022-10-25T18:37:44.584Z,100167.59
2022-10-25T18:42:46.230Z,100165.06
2022-10-25T18:47:53.368Z,100163.06
2022-10-25T18:52:54.892Z,100167.84
2022-10-25T18:57:58.762Z,100171.78
2022-10-25T19:03:00.310Z,100173.41
2022-10-25T19:08:01.806Z,100166.53
2022-10-25T19:13:04.233Z,100169.63
2022-10-25T19:18:05.928Z,100165.75
2022-10-25T19:23:08.288Z,100167.53
2022-10-25T19:28:10.128Z,100161.78
2022-10-25T19:33:11.755Z,100164.88
2022-10-25T19:38:14.476Z,100161.00
2022-10-25T19:43:15.980Z,100168.63
2022-10-25T19:48:17.521Z,100171.09
2022-10-25T19:53:19.379Z,100181.66
2022-10-25T19:58:20.891Z,100184.66
2022-10-25T20:03:22.461Z,100187.09
2022-10-25T20:08:23.988Z,100187.91
2022-10-25T20:13:25.795Z,100185.81
2022-10-25T20:18:31.964Z,100187.28
2022-10-25T20:23:34.541Z,100182.75
2022-10-25T20:28:36.100Z,100190.53
2022-10-25T20:33:38.801Z,100186.31
2022-10-25T20:38:41.138Z,100183.13
2022-10-25T20:43:46.841Z,100185.91
2022-10-25T20:48:48.391Z,100200.94
2022-10-25T20:53:50.026Z,100194.81
2022-10-25T20:58:51.979Z,100193.53
2022-10-25T21:03:54.111Z,100190.59
2022-10-25T21:08:55.773Z,100197.88
2022-10-25T21:13:57.321Z,100200.56
2022-10-25T21:19:03.217Z,100206.66
2022-10-25T21:24:06.136Z,100204.97
2022-10-25T21:29:07.830Z,100206.06
2022-10-25T21:34:09.412Z,100206.41
2022-10-25T21:39:11.027Z,100206.13
2022-10-25T21:44:12.602Z,100206.13
2022-10-25T21:49:14.228Z,100215.13
2022-10-25T21:54:16.073Z,100216.78
2022-10-25T21:59:17.721Z,100213.53
2022-10-25T22:04:19.304Z,100207.78
2022-10-25T22:09:20.879Z,100217.63
2022-10-25T22:14:22.452Z,100205.19
2022-10-25T22:24:30.681Z,100201.50
2022-10-25T22:29:32.317Z,100211.13
2022-10-25T22:34:33.931Z,100213.06
2022-10-25T22:39:35.596Z,100207.88
2022-10-25T22:44:38.571Z,100204.06
2022-10-25T22:49:40.388Z,100210.34
2022-10-25T22:54:42.105Z,100209.38
2022-10-25T22:59:43.713Z,100205.47
2022-10-25T23:04:45.342Z,100209.91
2022-10-25T23:09:47.050Z,100212.84
2022-10-25T23:14:48.562Z,100218.00
2022-10-25T23:19:50.109Z,100213.03
2022-10-25T23:24:51.740Z,100205.84
2022-10-25T23:29:53.341Z,100203.38
2022-10-25T23:34:57.019Z,100205.41
2022-10-25T23:39:58.824Z,100199.00
2022-10-25T23:45:03.205Z,100206.34
2022-10-25T23:50:05.400Z,100218.81
2022-10-25T23:55:07.654Z,100214.34
